Time;durP1;ratioP1;P1;durP2;ratioP2;P2;SDS_P1;SDS_P2;PMS_P1;PMS_P2;Temp;Humidity;BMP_temperature;BMP_pressure;BME280_temperature;BME280_humidity;BME280_pressure;Samples;Min_cycle;Max_cycle;Signal;HPM_P1;HPM_P2
2022/10/10 00:01:17;;;;;;;56.67;11.80;;;7.60;92.50;;;;;;5066377;28;20884;-61
2022/10/10 00:03:44;;;;;;;61.30;11.57;;;;;;;;;;5066299;28;20478;-62
2022/10/10 00:06:12;;;;;;;62.60;12.77;;;7.60;92.70;;;;;;5065382;28;20509;-62
2022/10/10 00:08:40;;;;;;;119.67;19.33;;;7.60;92.80;;;;;;5063418;28;20509;-63
2022/10/10 00:11:09;;;;;;;71.43;13.70;;;7.50;92.80;;;;;;5063792;28;20497;-63
2022/10/10 00:13:36;;;;;;;88.53;15.23;;;;;;;;;;5052967;28;20478;-61
2022/10/10 00:16:03;;;;;;;64.23;13.00;;;7.50;92.90;;;;;;5066042;28;20485;-62
2022/10/10 00:18:31;;;;;;;116.23;21.00;;;7.60;92.60;;;;;;5063412;28;20981;-61
2022/10/10 00:20:58;;;;;;;56.60;11.33;;;;;;;;;;5064730;28;20795;-62
2022/10/10 00:23:25;;;;;;;38.60;11.40;;;;;;;;;;5066201;28;20478;-61
2022/10/10 00:25:52;;;;;;;64.50;12.90;;;;;;;;;;5068808;28;20845;-61
2022/10/10 00:28:20;;;;;;;55.77;11.90;;;7.70;92.50;;;;;;5034310;28;20558;-61
2022/10/10 00:30:48;;;;;;;86.53;14.90;;;;;;;;;;5073236;28;20481;-61
2022/10/10 00:33:15;;;;;;;62.17;12.10;;;;;;;;;;5072387;28;21100;-61
2022/10/10 00:35:42;;;;;;;72.50;13.17;;;7.60;92.30;;;;;;5067623;28;20848;-62
2022/10/10 00:38:10;;;;;;;82.50;14.47;;;;;;;;;;5062316;28;20478;-62
2022/10/10 00:40:45;;;;;;;86.40;15.77;;;7.40;92.50;;;;;;5059167;28;20485;-61
2022/10/10 00:43:13;;;;;;;92.40;15.50;;;7.40;92.40;;;;;;5068973;28;20473;-61
2022/10/10 00:45:43;;;;;;;40.50;11.03;;;;;;;;;;5076232;28;20487;-63
2022/10/10 00:48:12;;;;;;;71.40;13.57;;;7.40;92.40;;;;;;5065909;28;20853;-61
2022/10/10 00:50:46;;;;;;;86.73;15.80;;;7.50;92.40;;;;;;5075367;28;20524;-62
2022/10/10 00:53:15;;;;;;;58.00;11.20;;;8.80;93.10;;;;;;5074795;28;20478;-62
2022/10/10 00:55:43;;;;;;;75.33;12.47;;;;;;;;;;5064067;28;21093;-62
2022/10/10 00:58:12;;;;;;;70.03;13.70;;;7.40;92.90;;;;;;5088003;28;20486;-61
2022/10/10 01:00:39;;;;;;;85.67;15.53;;;;;;;;;;5074627;28;20481;-62
2022/10/10 01:03:07;;;;;;;59.10;11.80;;;7.40;92.70;;;;;;5073843;28;20485;-61
2022/10/10 01:05:34;;;;;;;81.13;17.23;;;7.40;92.70;;;;;;5075650;28;20487;-61
2022/10/10 01:08:02;;;;;;;73.60;13.57;;;7.50;92.50;;;;;;5072646;28;20475;-60
2022/10/10 01:10:30;;;;;;;53.03;10.57;;;;;;;;;;5073421;28;20467;-61
2022/10/10 01:13:09;;;;;;;58.87;11.40;;;7.30;92.40;;;;;;5074107;28;20698;-60
2022/10/10 01:15:46;;;;;;;96.90;16.00;;;7.30;92.40;;;;;;5075196;28;20470;-62
2022/10/10 01:18:22;;;;;;;52.00;11.17;;;7.30;92.30;;;;;;5074181;28;20552;-61
2022/10/10 01:21:16;;;;;;;57.50;9.97;;;7.30;92.30;;;;;;5073246;28;20474;-60
2022/10/10 01:24:23;;;;;;;55.63;10.97;;;7.30;92.50;;;;;;5072930;28;20501;-60
2022/10/10 01:27:21;;;;;;;51.17;11.33;;;7.30;92.30;;;;;;5066358;28;21005;-61
2022/10/10 01:29:52;;;;;;;57.43;11.80;;;7.30;92.40;;;;;;5074755;28;20843;-60
2022/10/10 01:32:25;;;;;;;60.20;11.27;;;7.30;92.50;;;;;;5068230;28;20964;-60
2022/10/10 01:35:01;;;;;;;48.70;9.83;;;7.30;92.60;;;;;;5066828;28;20489;-60
2022/10/10 01:37:39;;;;;;;66.63;13.97;;;7.30;92.60;;;;;;5065129;28;20993;-59
2022/10/10 01:40:14;;;;;;;56.87;11.40;;;7.30;92.50;;;;;;5073031;28;20497;-60
2022/10/10 01:42:47;;;;;;;71.20;12.97;;;7.20;92.60;;;;;;5071662;28;20481;-60
2022/10/10 01:45:15;;;;;;;50.17;10.70;;;;;;;;;;5074327;28;20513;-60
2022/10/10 01:47:43;;;;;;;68.37;12.63;;;;;;;;;;5069165;28;20483;-61
2022/10/10 01:50:13;;;;;;;53.33;10.87;;;;;;;;;;5071815;28;20485;-60
2022/10/10 01:52:48;;;;;;;79.03;14.70;;;6.80;92.70;;;;;;5070621;28;20485;-60
2022/10/10 01:55:30;;;;;;;68.33;13.77;;;6.70;92.90;;;;;;5068082;28;20473;-60
2022/10/10 01:58:10;;;;;;;54.40;12.57;;;6.50;93.40;;;;;;5072293;28;20483;-61
2022/10/10 02:00:46;;;;;;;72.87;13.20;;;;;;;;;;5071311;28;20474;-61
2022/10/10 02:03:17;;;;;;;51.13;11.23;;;6.60;93.50;;;;;;5057462;28;20854;-61
2022/10/10 02:05:48;;;;;;;49.73;10.23;;;6.60;93.60;;;;;;5072700;28;20471;-61
2022/10/10 02:08:21;;;;;;;62.17;12.53;;;6.60;93.50;;;;;;5068605;28;20482;-61
2022/10/10 02:10:52;;;;;;;55.20;11.27;;;6.70;93.30;;;;;;5055014;28;20731;-60
2022/10/10 02:13:19;;;;;;;44.70;9.60;;;;;;;;;;5069874;28;20478;-61
2022/10/10 02:15:53;;;;;;;61.80;12.43;;;6.70;93.00;;;;;;5072368;28;20485;-62
2022/10/10 02:18:23;;;;;;;50.27;11.00;;;;;;;;;;5072821;28;20525;-62
2022/10/10 02:20:51;;;;;;;53.47;11.43;;;6.70;93.00;;;;;;5073642;28;20526;-62
2022/10/10 02:23:20;;;;;;;46.83;11.33;;;;;;;;;;5072257;28;21032;-61
2022/10/10 02:25:51;;;;;;;50.93;11.40;;;6.80;93.00;;;;;;5073162;28;20482;-61
2022/10/10 02:28:23;;;;;;;49.40;10.40;;;6.80;92.90;;;;;;5069447;28;20486;-61
2022/10/10 02:30:55;;;;;;;60.80;12.47;;;;;;;;;;5073909;28;20475;-61
2022/10/10 02:33:26;;;;;;;48.07;10.30;;;;;;;;;;5072339;28;20478;-62
2022/10/10 02:35:54;;;;;;;44.57;9.70;;;8.30;93.40;;;;;;5073562;28;20490;-61
2022/10/10 02:38:21;;;;;;;58.07;12.80;;;;;;;;;;5070612;28;20481;-60
2022/10/10 02:40:49;;;;;;;43.23;9.10;;;6.80;93.10;;;;;;5072509;28;20513;-61
2022/10/10 02:43:17;;;;;;;47.37;10.17;;;6.80;92.90;;;;;;5069505;28;20485;-60
2022/10/10 02:45:44;;;;;;;68.90;12.73;;;6.80;93.00;;;;;;5070604;28;20470;-61
2022/10/10 02:48:13;;;;;;;72.90;13.90;;;9.40;94.10;;;;;;5080238;28;20479;-61
2022/10/10 02:50:40;;;;;;;80.57;14.97;;;;;;;;;;5077051;28;20945;-60
2022/10/10 02:53:07;;;;;;;48.23;9.77;;;;;;;;;;5076642;28;20458;-62
2022/10/10 02:55:34;;;;;;;110.70;20.03;;;6.70;93.10;;;;;;5076631;28;20924;-61
2022/10/10 02:58:01;;;;;;;42.20;9.77;;;;;;;;;;5077697;28;20467;-61
2022/10/10 03:00:28;;;;;;;71.47;14.23;;;;;;;;;;5077246;28;20458;-61
2022/10/10 03:02:55;;;;;;;50.40;10.83;;;;;;;;;;5077387;28;20462;-60
2022/10/10 03:05:23;;;;;;;47.57;9.83;;;6.70;93.30;;;;;;5078060;28;20978;-61
2022/10/10 03:07:50;;;;;;;54.87;11.40;;;;;;;;;;5078244;28;20463;-62
2022/10/10 03:10:17;;;;;;;39.33;9.60;;;6.70;93.10;;;;;;5077986;28;20454;-60
2022/10/10 03:12:44;;;;;;;66.57;13.10;;;;;;;;;;5061889;28;20806;-60
2022/10/10 03:15:11;;;;;;;53.70;11.20;;;6.70;93.30;;;;;;5057206;28;20470;-61
2022/10/10 03:17:38;;;;;;;93.77;17.20;;;6.50;93.30;;;;;;5058501;28;20471;-61
2022/10/10 03:20:07;;;;;;;38.50;8.27;;;6.50;93.30;;;;;;5060730;28;20474;-61
2022/10/10 03:22:35;;;;;;;99.10;18.37;;;6.50;93.30;;;;;;5056618;28;20468;-61
2022/10/10 03:25:01;;;;;;;59.37;10.90;;;6.50;93.30;;;;;;5066607;28;20959;-60
2022/10/10 03:27:28;;;;;;;52.10;10.40;;;6.50;93.30;;;;;;5079877;28;20804;-60
2022/10/10 03:29:55;;;;;;;92.63;14.60;;;;;;;;;;5054216;28;20570;-61
2022/10/10 03:32:22;;;;;;;55.87;9.90;;;;;;;;;;5064566;28;20483;-60
2022/10/10 03:34:49;;;;;;;83.57;12.23;;;;;;;;;;5060492;28;20594;-60
2022/10/10 03:37:17;;;;;;;65.60;12.40;;;;;;;;;;5062650;28;20468;-60
2022/10/10 03:39:45;;;;;;;91.43;15.73;;;6.10;95.20;;;;;;5062563;28;20470;-62
2022/10/10 03:42:12;;;;;;;68.43;11.70;;;;;;;;;;5065226;28;20478;-62
2022/10/10 03:44:39;;;;;;;84.87;15.40;;;6.30;95.00;;;;;;5060154;28;20578;-61
2022/10/10 03:47:06;;;;;;;45.97;9.93;;;;;;;;;;5067304;28;20463;-61
2022/10/10 03:49:32;;;;;;;105.43;19.93;;;6.40;94.70;;;;;;5062254;28;20490;-61
2022/10/10 03:52:00;;;;;;;76.70;12.83;;;;;;;;;;5078238;28;20919;-61
2022/10/10 03:54:27;;;;;;;73.40;15.50;;;;;;;;;;5078923;28;20470;-61
2022/10/10 03:56:56;;;;;;;58.70;12.33;;;;;;;;;;5078223;28;20478;-61
2022/10/10 07:36:23;;;;;;;59.60;14.17;;;16.00;91.70;;;;;;5001495;28;20481;-62
2022/10/10 07:38:51;;;;;;;88.03;19.70;;;16.20;92.80;;;;;;5065377;28;20497;-62
2022/10/10 07:41:19;;;;;;;49.50;14.20;;;16.50;92.90;;;;;;5058542;28;21038;-62
2022/10/10 07:43:46;;;;;;;78.43;18.90;;;17.50;93.90;;;;;;5080510;28;20588;-62
2022/10/10 07:46:17;;;;;;;46.40;13.90;;;18.40;91.90;;;;;;5064773;28;20477;-61
2022/10/10 07:48:44;;;;;;;49.10;14.07;;;19.50;91.50;;;;;;5067696;28;20879;-63
2022/10/10 07:51:12;;;;;;;45.07;14.50;;;20.50;91.50;;;;;;5067272;28;20471;-62
2022/10/10 07:53:40;;;;;;;47.03;14.90;;;21.30;90.70;;;;;;5066895;28;20474;-62
2022/10/10 07:56:09;;;;;;;35.07;11.97;;;22.10;88.60;;;;;;5065381;28;20835;-63
2022/10/10 07:58:36;;;;;;;37.97;13.73;;;22.50;87.20;;;;;;5058169;28;20814;-63
2022/10/10 08:01:04;;;;;;;43.93;13.30;;;22.80;85.40;;;;;;5068488;28;20731;-62
2022/10/10 08:03:31;;;;;;;35.60;12.97;;;22.90;85.60;;;;;;5068138;28;20997;-62
2022/10/10 08:05:58;;;;;;;54.87;18.53;;;23.10;85.70;;;;;;5065496;28;20482;-62
2022/10/10 08:08:25;;;;;;;34.70;12.30;;;;;;;;;;5068078;28;20501;-63
2022/10/10 08:10:53;;;;;;;54.80;14.07;;;22.20;85.40;;;;;;5066729;28;20490;-62
2022/10/10 08:13:20;;;;;;;41.83;13.77;;;21.70;87.10;;;;;;5065334;28;20561;-62
2022/10/10 08:15:50;;;;;;;49.17;15.10;;;;;;;;;;5065855;28;20493;-63
2022/10/10 08:18:17;;;;;;;38.20;12.80;;;20.10;91.80;;;;;;5067188;28;20571;-62
2022/10/10 08:20:44;;;;;;;45.37;12.80;;;19.70;93.10;;;;;;5067906;28;20556;-62
2022/10/10 08:23:11;;;;;;;36.70;13.30;;;19.50;94.40;;;;;;5067197;28;21086;-62
2022/10/10 08:25:38;;;;;;;43.77;13.90;;;19.30;96.10;;;;;;5065854;28;20483;-62
2022/10/10 08:28:06;;;;;;;47.37;13.97;;;19.30;96.30;;;;;;5068720;28;20489;-62
2022/10/10 08:30:33;;;;;;;58.63;15.97;;;18.90;96.30;;;;;;5067776;28;20494;-63
2022/10/10 08:33:00;;;;;;;80.33;20.33;;;18.90;97.60;;;;;;5062976;28;20497;-62
2022/10/10 08:35:27;;;;;;;42.10;12.77;;;;;;;;;;5075313;28;20898;-62
2022/10/10 08:37:54;;;;;;;69.47;18.80;;;19.10;97.60;;;;;;5070427;28;20490;-62
2022/10/10 08:40:22;;;;;;;47.30;13.97;;;19.00;97.70;;;;;;5071647;28;20574;-63
2022/10/10 08:42:53;;;;;;;61.43;17.30;;;;;;;;;;5069878;28;20486;-62
2022/10/10 08:45:23;;;;;;;64.53;15.40;;;;;;;;;;5069400;28;21082;-62
2022/10/10 08:47:54;;;;;;;60.17;16.57;;;16.50;96.50;;;;;;5068404;28;20480;-62
2022/10/10 08:50:23;;;;;;;48.00;13.60;;;;;;;;;;5071789;28;20481;-62
2022/10/10 08:52:53;;;;;;;60.53;15.80;;;19.10;98.00;;;;;;5068869;28;20475;-63
2022/10/10 08:55:23;;;;;;;63.77;15.50;;;;;;;;;;5069381;28;20539;-62
2022/10/10 08:57:54;;;;;;;60.43;17.37;;;19.20;98.60;;;;;;5072185;28;20478;-62
2022/10/10 09:00:25;;;;;;;82.77;13.77;;;19.40;97.50;;;;;;5071210;28;20478;-63
2022/10/10 09:02:55;;;;;;;74.20;19.67;;;;;;;;;;5070902;28;20479;-63
2022/10/10 09:05:37;;;;;;;49.00;15.23;;;19.40;98.20;;;;;;5071141;28;20484;-62
2022/10/10 09:08:25;;;;;;;60.20;15.03;;;19.40;98.10;;;;;;5072538;28;20923;-62
2022/10/10 09:10:56;;;;;;;73.30;17.63;;;19.40;98.00;;;;;;5068800;28;20486;-62
2022/10/10 09:13:30;;;;;;;61.77;14.80;;;;;;;;;;5070924;28;20672;-62
2022/10/10 09:16:01;;;;;;;56.80;15.00;;;19.30;98.20;;;;;;5070166;28;20485;-63
2022/10/10 09:18:44;;;;;;;61.13;14.67;;;16.30;96.70;;;;;;5074395;28;20654;-62
2022/10/10 09:21:15;;;;;;;44.57;11.93;;;;;;;;;;5040183;28;20927;-62
2022/10/10 09:23:47;;;;;;;46.70;13.67;;;19.00;97.90;;;;;;5080860;28;21320;-62
2022/10/10 09:26:15;;;;;;;44.43;13.30;;;18.90;98.20;;;;;;5061239;28;20479;-63
2022/10/10 09:28:45;;;;;;;49.57;13.97;;;;;;;;;;5085593;28;20466;-63
2022/10/10 09:31:18;;;;;;;61.23;13.97;;;18.70;98.70;;;;;;5071197;28;20475;-63
2022/10/10 09:33:50;;;;;;;42.47;13.47;;;18.50;99.00;;;;;;5062925;28;20501;-62
2022/10/10 09:36:20;;;;;;;57.30;14.20;;;18.60;99.10;;;;;;5072133;28;20483;-62
2022/10/10 09:38:50;;;;;;;53.30;14.87;;;;;;;;;;5069715;28;20842;-62
2022/10/10 09:41:20;;;;;;;47.17;12.50;;;;;;;;;;5072246;28;20800;-62
2022/10/10 09:43:47;;;;;;;53.73;15.07;;;19.20;99.00;;;;;;5068239;28;21112;-62
2022/10/10 09:46:16;;;;;;;64.40;15.10;;;;;;;;;;5069654;28;20599;-61
2022/10/10 09:48:43;;;;;;;39.83;12.77;;;19.60;98.20;;;;;;5071654;28;20449;-62
2022/10/10 09:51:14;;;;;;;37.30;12.40;;;19.70;97.90;;;;;;5070494;28;20866;-62
2022/10/10 09:53:41;;;;;;;38.60;11.17;;;19.80;98.20;;;;;;5070282;28;20481;-62
2022/10/10 09:56:14;;;;;;;50.67;12.87;;;19.80;97.40;;;;;;5067103;28;21067;-62
2022/10/10 09:58:43;;;;;;;35.70;11.90;;;;;;;;;;5057579;28;20482;-62
2022/10/10 10:01:20;;;;;;;47.37;13.80;;;18.00;96.60;;;;;;5070888;28;20553;-62
2022/10/10 10:04:13;;;;;;;45.77;13.10;;;20.20;97.30;;;;;;5058859;28;20481;-62
2022/10/10 10:06:43;;;;;;;46.13;12.83;;;;;;;;;;5068075;28;20471;-62
2022/10/10 10:09:15;;;;;;;50.77;13.47;;;20.30;96.70;;;;;;5069760;28;20470;-62
2022/10/10 10:11:44;;;;;;;50.87;13.33;;;20.50;97.40;;;;;;5057872;28;20483;-62
2022/10/10 10:14:20;;;;;;;36.13;11.20;;;;;;;;;;5068956;28;20474;-62
2022/10/10 10:16:48;;;;;;;41.00;11.77;;;20.40;96.50;;;;;;5060835;28;20854;-62
2022/10/10 10:19:33;;;;;;;40.90;11.80;;;20.10;96.60;;;;;;5079564;28;21111;-62
2022/10/10 10:22:03;;;;;;;55.90;14.80;;;20.30;97.10;;;;;;5068127;28;20474;-62
2022/10/10 10:24:35;;;;;;;36.20;12.07;;;20.40;96.90;;;;;;5069495;28;20485;-62
2022/10/10 10:27:10;;;;;;;64.87;16.13;;;;;;;;;;5067247;28;20482;-62
2022/10/10 10:29:37;;;;;;;42.30;12.90;;;19.80;96.30;;;;;;5063637;28;20557;-62
2022/10/10 10:32:14;;;;;;;45.50;12.80;;;19.70;95.90;;;;;;5067861;28;20486;-62
2022/10/10 10:34:53;;;;;;;52.77;14.03;;;19.50;96.30;;;;;;5068582;28;20474;-62
2022/10/10 10:37:23;;;;;;;43.03;13.33;;;19.60;96.60;;;;;;5064667;28;20484;-63
2022/10/10 10:40:17;;;;;;;46.67;12.93;;;19.90;97.00;;;;;;5067479;28;20539;-62
2022/10/10 10:43:17;;;;;;;48.87;13.10;;;20.10;96.80;;;;;;5065402;28;20943;-62
2022/10/10 10:45:50;;;;;;;40.67;13.20;;;;;;;;;;5065081;28;20489;-62
2022/10/10 10:48:27;;;;;;;39.63;11.00;;;20.60;97.10;;;;;;5068441;28;20494;-62
2022/10/10 10:50:56;;;;;;;39.03;12.80;;;;;;;;;;5066146;28;21113;-61
2022/10/10 10:53:34;;;;;;;34.00;9.73;;;20.70;96.40;;;;;;5067513;28;20471;-61
2022/10/10 10:56:14;;;;;;;44.93;13.70;;;20.90;96.10;;;;;;5064426;28;20481;-61
2022/10/10 10:58:59;;;;;;;38.30;11.33;;;21.10;97.00;;;;;;5068134;28;20478;-62
2022/10/10 11:01:30;;;;;;;47.83;14.27;;;21.10;95.90;;;;;;5062639;28;20494;-62
2022/10/10 11:04:03;;;;;;;26.83;11.90;;;20.90;95.50;;;;;;5067469;28;20479;-63
2022/10/10 11:06:45;;;;;;;50.37;11.97;;;20.90;95.30;;;;;;5066739;28;20478;-62
2022/10/10 11:09:16;;;;;;;50.43;13.57;;;20.90;95.10;;;;;;5057459;28;20485;-63
2022/10/10 11:11:53;;;;;;;35.40;11.00;;;;;;;;;;5054200;28;20969;-63
2022/10/10 11:14:26;;;;;;;23.33;9.13;;;;;;;;;;5056161;28;20493;-62
2022/10/10 11:16:57;;;;;;;31.23;9.47;;;21.20;96.20;;;;;;5064816;28;20483;-62
2022/10/10 11:19:31;;;;;;;24.90;9.00;;;21.40;96.20;;;;;;5065048;28;20697;-62
2022/10/10 11:22:03;;;;;;;24.93;8.73;;;21.60;95.20;;;;;;5067787;28;21378;-63
2022/10/10 11:24:38;;;;;;;39.80;11.27;;;21.80;95.20;;;;;;5067238;28;20479;-63
2022/10/10 11:27:11;;;;;;;45.27;11.50;;;22.00;95.30;;;;;;5064818;28;21614;-62
2022/10/10 11:29:54;;;;;;;28.17;10.80;;;22.20;94.90;;;;;;5067325;28;20975;-62
2022/10/10 11:32:26;;;;;;;27.20;9.17;;;22.20;94.20;;;;;;5056883;28;20891;-62
2022/10/10 11:35:05;;;;;;;20.47;9.90;;;22.10;94.80;;;;;;5066808;28;20489;-62
2022/10/10 11:37:37;;;;;;;52.83;12.13;;;22.10;94.80;;;;;;5068290;28;20732;-63
2022/10/10 11:40:05;;;;;;;23.80;9.10;;;22.00;93.80;;;;;;5068044;28;20491;-62
2022/10/10 11:42:37;;;;;;;38.30;10.90;;;21.90;94.20;;;;;;5066474;28;20462;-62
2022/10/10 11:45:13;;;;;;;28.47;9.70;;;22.00;94.70;;;;;;5064966;28;20479;-62
2022/10/10 11:47:43;;;;;;;25.07;8.70;;;;;;;;;;5068320;28;20756;-62
2022/10/10 11:50:17;;;;;;;35.93;9.27;;;22.10;95.10;;;;;;5067888;28;20444;-63
2022/10/10 11:52:52;;;;;;;19.67;7.43;;;22.40;93.60;;;;;;5066409;28;20445;-63
2022/10/10 11:55:25;;;;;;;16.17;7.83;;;22.40;92.70;;;;;;5055897;28;20644;-63
2022/10/10 11:57:55;;;;;;;21.83;7.87;;;22.30;92.60;;;;;;5067409;28;20535;-64
2022/10/10 12:00:22;;;;;;;31.10;8.40;;;22.20;92.80;;;;;;5067265;28;20760;-63
2022/10/10 12:02:49;;;;;;;19.87;6.93;;;22.20;93.60;;;;;;5063921;28;21093;-63
2022/10/10 12:05:23;;;;;;;15.97;8.20;;;22.30;94.00;;;;;;5066710;28;20555;-63
2022/10/10 12:08:00;;;;;;;17.83;9.10;;;;;;;;;;5065169;28;20509;-63
2022/10/10 12:10:31;;;;;;;24.20;8.83;;;22.40;94.00;;;;;;5067740;28;20460;-62
2022/10/10 12:13:03;;;;;;;17.00;7.43;;;22.40;92.10;;;;;;5066936;28;20844;-63
2022/10/10 12:15:34;;;;;;;20.57;7.30;;;22.50;92.30;;;;;;5067953;28;20456;-63
2022/10/10 12:18:01;;;;;;;15.30;7.27;;;22.50;91.50;;;;;;5075682;28;20463;-63
2022/10/10 12:20:35;;;;;;;19.23;7.40;;;22.40;92.00;;;;;;5071622;28;20840;-63
2022/10/10 12:23:16;;;;;;;17.17;7.40;;;;;;;;;;5067926;28;21080;-63
2022/10/10 12:25:45;;;;;;;16.87;6.80;;;;;;;;;;5068960;28;20478;-63
2022/10/10 12:28:26;;;;;;;16.43;7.47;;;22.60;91.70;;;;;;5071492;28;20467;-63
2022/10/10 12:31:19;;;;;;;14.90;8.00;;;22.70;92.90;;;;;;5068571;28;20533;-63
2022/10/10 12:34:00;;;;;;;15.03;7.10;;;22.50;91.50;;;;;;5056034;28;20501;-63
2022/10/10 12:37:04;;;;;;;22.50;8.10;;;22.50;92.40;;;;;;5069891;28;20774;-63
2022/10/10 12:39:37;;;;;;;15.50;7.97;;;22.30;92.40;;;;;;5072564;28;20469;-63
2022/10/10 12:42:25;;;;;;;19.57;7.43;;;22.50;93.40;;;;;;5069637;28;20454;-63
2022/10/10 12:44:52;;;;;;;30.40;8.60;;;22.70;94.20;;;;;;5059620;28;20858;-63
2022/10/10 12:47:34;;;;;;;22.53;6.83;;;22.80;93.10;;;;;;5069713;28;20708;-63
2022/10/10 12:50:04;;;;;;;15.50;8.60;;;23.20;93.00;;;;;;5071053;28;20731;-64
2022/10/10 12:52:34;;;;;;;14.63;7.53;;;23.30;93.40;;;;;;5069359;28;20798;-63
2022/10/10 12:55:07;;;;;;;23.73;12.10;;;23.40;92.80;;;;;;5068548;28;20452;-64
2022/10/10 12:57:36;;;;;;;23.20;9.13;;;;;;;;;;5077048;28;20468;-63
2022/10/10 13:00:14;;;;;;;24.40;8.17;;;23.10;91.70;;;;;;5067442;28;20640;-64
2022/10/10 13:02:44;;;;;;;25.23;9.20;;;23.20;92.50;;;;;;5067582;28;20489;-63
2022/10/10 13:05:14;;;;;;;14.33;8.87;;;23.40;92.70;;;;;;5069091;28;20465;-64
2022/10/10 13:07:42;;;;;;;20.73;7.50;;;23.40;92.40;;;;;;5067905;28;20477;-64
2022/10/10 13:10:20;;;;;;;29.20;9.43;;;23.40;92.30;;;;;;5069532;28;20547;-63
2022/10/10 13:12:59;;;;;;;19.33;9.10;;;23.50;92.30;;;;;;5058173;28;20478;-64
2022/10/10 13:15:26;;;;;;;22.20;8.77;;;;;;;;;;5067805;28;20462;-63
2022/10/10 13:17:53;;;;;;;33.77;11.13;;;;;;;;;;5070379;28;20484;-63
2022/10/10 13:20:34;;;;;;;22.27;8.20;;;23.60;92.70;;;;;;5069099;28;20481;-64
2022/10/10 13:23:03;;;;;;;20.80;8.80;;;;;;;;;;5065894;28;20557;-64
2022/10/10 13:25:32;;;;;;;25.80;7.30;;;23.70;92.00;;;;;;5068120;28;20490;-64
2022/10/10 13:27:59;;;;;;;29.63;11.43;;;23.70;93.00;;;;;;5088656;28;20885;-63
2022/10/10 13:30:26;;;;;;;12.50;6.70;;;;;;;;;;5081523;28;20847;-63
2022/10/10 13:32:54;;;;;;;24.37;10.83;;;24.10;92.00;;;;;;5072273;28;21056;-63
2022/10/10 13:35:23;;;;;;;17.67;8.20;;;24.10;91.60;;;;;;5067919;28;20471;-64
2022/10/10 13:37:54;;;;;;;25.43;9.80;;;23.90;91.90;;;;;;5069299;28;20487;-63
2022/10/10 13:40:21;;;;;;;19.80;8.23;;;24.00;92.80;;;;;;5052174;28;20489;-63
2022/10/10 13:42:51;;;;;;;18.67;8.77;;;;;;;;;;5080016;28;20876;-64
2022/10/10 13:45:32;;;;;;;17.10;8.80;;;;;;;;;;5066710;28;20453;-64
2022/10/10 13:48:25;;;;;;;22.67;9.67;;;23.70;92.80;;;;;;5068922;28;20442;-63
2022/10/10 13:51:05;;;;;;;16.30;10.27;;;23.40;92.10;;;;;;5067908;28;20767;-63
2022/10/10 13:53:35;;;;;;;15.23;6.87;;;23.50;92.40;;;;;;5069900;28;20506;-63
2022/10/10 13:56:06;;;;;;;12.60;9.40;;;23.40;92.40;;;;;;5067818;28;20483;-63
2022/10/10 13:58:41;;;;;;;25.80;10.80;;;23.40;92.20;;;;;;5068919;28;20483;-64
2022/10/10 14:01:21;;;;;;;17.33;7.60;;;23.20;92.20;;;;;;5069713;28;20479;-64
2022/10/10 14:03:48;;;;;;;18.13;10.20;;;22.90;92.50;;;;;;5069334;28;20494;-64
2022/10/10 14:06:18;;;;;;;24.23;10.27;;;22.90;93.20;;;;;;5066913;28;20677;-63
2022/10/10 14:08:45;;;;;;;20.37;8.97;;;23.00;93.70;;;;;;5069135;28;20807;-64
2022/10/10 14:11:16;;;;;;;14.27;8.07;;;;;;;;;;5069699;28;20486;-64
2022/10/10 14:13:49;;;;;;;13.00;6.50;;;23.20;93.60;;;;;;5068137;28;21055;-63
2022/10/10 14:16:23;;;;;;;19.10;7.00;;;;;;;;;;5066811;28;21861;-63
2022/10/10 14:18:50;;;;;;;23.30;9.47;;;;;;;;;;5056961;28;20471;-63
2022/10/10 14:21:17;;;;;;;19.13;7.60;;;23.40;92.90;;;;;;5069338;28;20951;-63
2022/10/10 14:23:43;;;;;;;12.53;6.83;;;23.60;93.30;;;;;;5069469;28;20481;-64
2022/10/10 14:26:13;;;;;;;21.50;8.57;;;;;;;;;;5067666;28;20482;-64
2022/10/10 14:28:40;;;;;;;18.03;6.57;;;;;;;;;;5068747;28;20487;-64
2022/10/10 14:31:08;;;;;;;19.87;6.80;;;23.40;92.60;;;;;;5067625;28;20494;-64
2022/10/10 14:33:35;;;;;;;27.00;7.17;;;23.30;92.60;;;;;;5066786;28;20501;-64
2022/10/10 14:36:02;;;;;;;24.67;8.57;;;23.10;93.30;;;;;;5071049;28;20485;-64
2022/10/10 14:38:28;;;;;;;16.13;7.40;;;23.00;93.10;;;;;;5068558;28;21336;-64
2022/10/10 14:40:56;;;;;;;21.97;8.30;;;;;;;;;;5068470;28;20475;-63
2022/10/10 14:43:23;;;;;;;25.53;8.03;;;;;;;;;;5068743;28;20766;-64
2022/10/10 14:45:52;;;;;;;16.30;10.13;;;22.70;93.90;;;;;;5067567;28;20885;-63
2022/10/10 14:48:20;;;;;;;14.63;8.60;;;22.70;93.90;;;;;;5064273;28;20474;-64
2022/10/10 14:50:48;;;;;;;33.97;8.60;;;22.70;94.20;;;;;;5067793;28;20468;-63
2022/10/10 14:53:15;;;;;;;12.70;7.73;;;22.70;94.20;;;;;;5069540;28;20478;-64
2022/10/10 14:55:43;;;;;;;20.27;8.33;;;22.70;94.30;;;;;;5066837;28;20474;-64
2022/10/10 14:58:14;;;;;;;25.57;7.33;;;22.70;94.50;;;;;;5067186;28;20474;-64
2022/10/10 15:00:41;;;;;;;13.20;7.73;;;22.60;94.20;;;;;;5067160;28;20828;-64
2022/10/10 15:03:07;;;;;;;15.60;7.47;;;22.50;94.10;;;;;;5067640;28;20892;-64
2022/10/10 15:05:36;;;;;;;23.37;8.57;;;;;;;;;;5067312;28;20768;-64
2022/10/10 15:08:03;;;;;;;21.53;8.77;;;;;;;;;;5067124;28;20863;-64
2022/10/10 15:10:30;;;;;;;17.93;7.77;;;;;;;;;;5068458;28;20486;-64
2022/10/10 15:12:57;;;;;;;27.70;10.00;;;22.10;94.70;;;;;;5067913;28;20482;-63
2022/10/10 15:15:23;;;;;;;21.70;8.30;;;22.10;95.00;;;;;;5067620;28;20483;-63
2022/10/10 15:17:51;;;;;;;15.43;9.93;;;;;;;;;;5066631;28;20457;-63
2022/10/10 15:20:19;;;;;;;16.87;8.57;;;22.00;95.30;;;;;;5068333;28;20711;-64
2022/10/10 15:22:47;;;;;;;26.53;8.37;;;21.80;95.40;;;;;;5067110;28;21639;-63
2022/10/10 15:25:13;;;;;;;22.43;9.20;;;21.80;95.90;;;;;;5067524;28;20698;-64
2022/10/10 15:27:40;;;;;;;18.37;8.17;;;;;;;;;;5068415;28;21018;-64
2022/10/10 15:30:08;;;;;;;18.60;8.70;;;21.80;95.50;;;;;;5066647;28;20548;-63
2022/10/10 15:32:38;;;;;;;17.30;6.90;;;;;;;;;;5066245;28;20956;-63
2022/10/10 15:35:05;;;;;;;17.80;10.37;;;21.80;95.90;;;;;;5065992;28;20450;-63
2022/10/10 15:37:32;;;;;;;14.10;8.83;;;21.80;95.80;;;;;;5067157;28;20483;-62
2022/10/10 15:40:00;;;;;;;16.20;9.03;;;;;;;;;;5067688;28;20463;-63
2022/10/10 15:42:28;;;;;;;21.40;8.40;;;21.80;95.90;;;;;;5068806;28;20513;-63
2022/10/10 15:44:55;;;;;;;15.23;9.90;;;21.70;95.90;;;;;;5067632;28;20822;-64
2022/10/10 15:47:21;;;;;;;10.77;8.63;;;21.70;95.90;;;;;;5067717;28;20626;-64
2022/10/10 15:49:49;;;;;;;17.60;9.00;;;21.70;96.10;;;;;;5065932;28;20466;-63
2022/10/10 15:52:16;;;;;;;25.70;8.90;;;;;;;;;;5067842;28;20441;-63
2022/10/10 15:54:47;;;;;;;40.67;9.03;;;;;;;;;;5067575;28;20481;-63
2022/10/10 15:57:16;;;;;;;24.13;9.97;;;21.60;96.10;;;;;;5064894;28;20566;-63
2022/10/10 15:59:43;;;;;;;12.10;8.17;;;21.70;96.40;;;;;;5066176;28;20485;-63
2022/10/10 16:02:10;;;;;;;28.03;8.63;;;;;;;;;;5066431;28;20487;-63
2022/10/10 16:04:37;;;;;;;12.27;7.50;;;21.70;96.50;;;;;;5067611;28;20479;-63
2022/10/10 16:07:04;;;;;;;18.83;9.23;;;21.60;96.30;;;;;;5064950;28;20509;-63
2022/10/10 16:09:31;;;;;;;14.27;7.77;;;21.50;96.50;;;;;;5056894;28;20453;-63
2022/10/10 16:11:58;;;;;;;17.20;9.70;;;21.40;96.30;;;;;;5074877;28;20481;-63
2022/10/10 16:14:26;;;;;;;17.10;9.27;;;21.30;96.60;;;;;;5078352;28;20902;-63
2022/10/10 16:16:54;;;;;;;34.73;10.30;;;;;;;;;;5065652;28;20493;-63
2022/10/10 16:19:20;;;;;;;20.23;8.30;;;21.20;96.70;;;;;;5057950;28;20478;-63
2022/10/10 16:21:47;;;;;;;15.87;8.70;;;21.10;96.80;;;;;;5070902;28;20570;-63
2022/10/10 16:24:14;;;;;;;32.57;8.60;;;21.00;96.90;;;;;;5066624;27;20474;-63
2022/10/10 16:26:40;;;;;;;18.77;7.60;;;21.00;96.90;;;;;;5066902;28;20490;-63
2022/10/10 16:29:09;;;;;;;12.23;7.13;;;20.90;97.00;;;;;;5064774;28;20478;-63
2022/10/10 16:31:38;;;;;;;42.57;10.03;;;20.90;97.20;;;;;;5067034;28;20479;-63
2022/10/10 16:34:06;;;;;;;17.20;8.23;;;20.90;97.20;;;;;;5065952;28;21065;-63
2022/10/10 16:36:35;;;;;;;23.37;8.03;;;20.70;97.30;;;;;;5064898;28;20475;-63
2022/10/10 16:39:01;;;;;;;22.73;8.60;;;20.70;97.40;;;;;;5065687;28;20489;-62
2022/10/10 16:41:30;;;;;;;18.03;8.50;;;20.60;97.40;;;;;;5068211;28;20474;-63
2022/10/10 16:43:57;;;;;;;19.77;9.50;;;20.50;97.30;;;;;;5066060;28;20481;-63
2022/10/10 16:46:26;;;;;;;33.30;15.20;;;20.50;97.40;;;;;;5054003;28;20486;-63
2022/10/10 16:48:57;;;;;;;27.13;10.93;;;;;;;;;;5075913;28;20550;-62
2022/10/10 16:51:24;;;;;;;26.27;9.17;;;20.60;97.30;;;;;;5063194;28;20510;-63
2022/10/10 16:53:51;;;;;;;15.53;9.53;;;20.60;97.20;;;;;;5063003;28;20861;-62
2022/10/10 16:56:20;;;;;;;18.20;8.33;;;20.70;97.30;;;;;;5063368;28;20997;-63